Time;durP1;ratioP1;P1;durP2;ratioP2;P2;SDS_P1;SDS_P2;PMS_P1;PMS_P2;Temp;Humidity;BMP_temperature;BMP_pressure;BME280_temperature;BME280_humidity;BME280_pressure;Samples;Min_cycle;Max_cycle;Signal;HPM_P1;HPM_P2
2023/05/08 00:00:40;;;;;;;23.48;17.30;;;;;;;;;;2531802;23;20020;-77
2023/05/08 00:02:02;;;;;;;26.85;16.95;;;;;;;;;;2537737;23;20017;-78
2023/05/08 00:03:23;;;;;;;34.80;18.75;;;;;;;;;;2527485;23;20025;-77
2023/05/08 00:04:44;;;;;;;26.08;16.77;;;;;;;;;;2537270;23;20018;-78
2023/05/08 00:06:05;;;;;;;25.23;15.73;;;;;;;;;;2532602;23;20436;-77
2023/05/08 00:07:26;;;;;;;27.85;17.10;;;;;;;;;;2532784;23;20005;-77
2023/05/08 00:08:47;;;;;;;23.35;15.52;;;;;;;;;;2540334;23;20005;-77
2023/05/08 00:10:08;;;;;;;22.65;15.65;;;;;;;;;;2543679;23;20340;-77
2023/05/08 00:11:29;;;;;;;21.60;15.68;;;;;;;;;;2543642;23;20021;-77
2023/05/08 00:12:50;;;;;;;26.48;16.88;;;;;;;;;;2531000;23;20089;-77
2023/05/08 00:14:11;;;;;;;22.35;15.52;;;;;;;;;;2530574;23;20526;-77
2023/05/08 00:15:32;;;;;;;22.30;16.27;;;;;;;;;;2539510;23;20040;-77
2023/05/08 00:16:53;;;;;;;32.45;18.25;;;;;;;;;;2539467;23;20036;-77
2023/05/08 00:18:14;;;;;;;38.67;19.60;;;;;;;;;;2540399;23;20013;-77
2023/05/08 00:19:35;;;;;;;23.88;16.33;;;;;;;;;;2528429;23;20014;-77
2023/05/08 00:20:56;;;;;;;31.47;18.07;;;;;;;;;;2525086;23;20081;-76
2023/05/08 00:22:17;;;;;;;27.63;17.52;;;;;;;;;;2531045;23;20089;-77
2023/05/08 00:23:38;;;;;;;34.10;18.77;;;;;;;;;;2535779;23;20361;-77
2023/05/08 00:24:59;;;;;;;33.22;18.35;;;;;;;;;;2540628;23;20089;-77
2023/05/08 00:26:20;;;;;;;26.00;16.98;;;;;;;;;;2544620;23;20439;-77
2023/05/08 00:27:41;;;;;;;26.08;16.50;;;;;;;;;;2543638;23;20120;-77
2023/05/08 00:29:02;;;;;;;26.50;18.17;;;;;;;;;;2544295;23;20005;-77
2023/05/08 00:30:23;;;;;;;27.42;16.52;;;;;;;;;;2544746;23;20009;-77
2023/05/08 00:31:44;;;;;;;23.50;16.63;;;;;;;;;;2530200;23;20428;-77
2023/05/08 00:33:05;;;;;;;25.90;17.90;;;;;;;;;;2539955;23;20020;-76
2023/05/08 00:34:26;;;;;;;31.55;17.42;;;;;;;;;;2532004;23;20042;-77
2023/05/08 00:35:47;;;;;;;25.60;17.05;;;;;;;;;;2540211;23;20014;-77
2023/05/08 00:37:08;;;;;;;27.90;16.75;;;;;;;;;;2544056;23;20013;-77
2023/05/08 00:38:29;;;;;;;30.98;18.30;;;;;;;;;;2528869;23;20062;-77
2023/05/08 00:39:50;;;;;;;27.70;18.13;;;;;;;;;;2540791;23;20016;-77
2023/05/08 00:41:11;;;;;;;25.92;17.25;;;;;;;;;;2543782;23;20010;-77
2023/05/08 00:42:32;;;;;;;29.00;18.13;;;;;;;;;;2529838;23;20293;-77
2023/05/08 00:43:53;;;;;;;30.73;18.75;;;;;;;;;;2529587;23;20108;-77
2023/05/08 00:45:14;;;;;;;31.50;18.65;;;;;;;;;;2537423;23;20013;-77
2023/05/08 00:46:35;;;;;;;28.80;17.23;;;;;;;;;;2543286;23;20396;-77
2023/05/08 00:47:56;;;;;;;25.42;16.58;;;;;;;;;;2530625;23;20017;-77
2023/05/08 00:49:17;;;;;;;23.98;17.08;;;;;;;;;;2539645;23;20006;-77
2023/05/08 00:50:38;;;;;;;26.27;18.63;;;;;;;;;;2531451;23;20017;-76
2023/05/08 00:51:59;;;;;;;26.40;18.92;;;;;;;;;;2539422;23;20005;-77
2023/05/08 00:53:22;;;;;;;26.48;18.05;;;;;;;;;;2543604;23;20295;-77
2023/05/08 00:54:42;;;;;;;26.02;17.88;;;;;;;;;;2530997;23;20010;-77
2023/05/08 00:56:04;;;;;;;33.28;20.58;;;;;;;;;;2521011;23;20075;-77
2023/05/08 00:57:25;;;;;;;28.15;18.15;;;;;;;;;;2514419;23;20452;-77
2023/05/08 00:58:47;;;;;;;35.95;21.13;;;;;;;;;;2510742;23;20019;-77
2023/05/08 01:00:08;;;;;;;29.80;19.35;;;;;;;;;;2523774;23;20371;-77
2023/05/08 01:04:12;;;;;;;38.05;20.70;;;;;;;;;;2551023;23;20172;-89
2023/05/08 01:05:34;;;;;;;25.00;16.80;;;;;;;;;;2582430;23;20016;-90
2023/05/08 01:06:55;;;;;;;24.60;15.90;;;;;;;;;;2573533;23;20005;-87
2023/05/08 01:08:16;;;;;;;24.67;15.88;;;;;;;;;;2570799;23;20009;-90
2023/05/08 01:09:37;;;;;;;24.15;16.20;;;;;;;;;;2567701;23;20004;-89
2023/05/08 01:11:01;;;;;;;21.83;15.15;;;;;;;;;;2581706;23;20019;-87
2023/05/08 01:12:40;;;;;;;31.38;17.85;;;;;;;;;;2569228;23;20476;-89
2023/05/08 01:14:11;;;;;;;39.17;20.50;;;;;;;;;;2569056;22;20019;-90
2023/05/08 01:15:37;;;;;;;26.73;16.55;;;;;;;;;;2571285;23;20021;-90
2023/05/08 01:17:08;;;;;;;28.85;17.67;;;;;;;;;;2568000;23;20015;-89
2023/05/08 01:18:37;;;;;;;23.80;17.05;;;;;;;;;;2570642;23;20027;-89
2023/05/08 01:22:44;;;;;;;;;;;;;;;;;;;;;
2023/05/08 01:28:42;;;;;;;;;;;;;;;;;;;;;
2023/05/08 01:36:41;;;;;;;;;;;;;;;;;;;;;
2023/05/08 01:38:10;;;;;;;29.42;17.63;;;;;;;;;;2512637;23;20022;-89
2023/05/08 01:39:40;;;;;;;27.17;17.98;;;;;;;;;;2558107;23;20013;-89
2023/05/08 01:41:15;;;;;;;23.95;17.17;;;;;;;;;;2573224;23;20020;-90
2023/05/08 01:43:13;;;;;;;;;;;;;;;;;;;;;
2023/05/08 01:49:43;;;;;;;;;;;;;;;;;;;;;
2023/05/08 02:01:35;;;;;;;45.28;21.67;;;;;;;;;;2429422;24;20029;-90
2023/05/08 02:02:57;;;;;;;25.13;17.42;;;;;;;;;;2430871;24;20021;-90
2023/05/08 02:04:18;;;;;;;31.90;18.98;;;;;;;;;;2466740;23;20027;-90
2023/05/08 02:05:40;;;;;;;29.73;18.25;;;;;;;;;;2485728;23;20022;-90
2023/05/08 02:07:01;;;;;;;29.65;18.00;;;;;;;;;;2492744;23;20211;-89
2023/05/08 02:08:23;;;;;;;24.65;17.05;;;;;;;;;;2506784;23;20131;-88
2023/05/08 02:09:45;;;;;;;30.23;18.90;;;;;;;;;;2500966;23;20007;-91
2023/05/08 02:11:06;;;;;;;35.20;20.50;;;;;;;;;;2507630;23;20022;-90
2023/05/08 02:12:28;;;;;;;28.77;19.17;;;;;;;;;;2501340;23;20011;-89
2023/05/08 02:13:50;;;;;;;34.92;21.23;;;;;;;;;;2526452;23;20325;-90
2023/05/08 02:15:12;;;;;;;29.60;18.98;;;;;;;;;;2567006;23;20020;-90
2023/05/08 02:16:33;;;;;;;;;;;;;;;;;;2568639;23;20012;-90
2023/05/08 02:17:54;;;;;;;30.85;19.42;;;;;;;;;;2579632;23;19910;-91
2023/05/08 02:21:38;;;;;;;25.77;15.48;;;;;;;;;;2568149;23;20035;-90
2023/05/08 02:23:00;;;;;;;23.80;14.20;;;;;;;;;;2572613;23;20016;-90
2023/05/08 02:24:21;;;;;;;23.20;14.60;;;;;;;;;;2568978;23;20008;-90
2023/05/08 02:25:43;;;;;;;20.73;15.02;;;;;;;;;;2580800;23;20011;-90
2023/05/08 02:27:05;;;;;;;22.00;15.48;;;;;;;;;;2574482;23;20005;-88
2023/05/08 02:28:26;;;;;;;47.70;15.38;;;;;;;;;;2573115;23;20039;-89
2023/05/08 02:29:49;;;;;;;25.83;16.33;;;;;;;;;;2566675;23;20012;-91
2023/05/08 02:31:11;;;;;;;23.98;16.60;;;;;;;;;;2580842;23;20004;-89
2023/05/08 02:32:32;;;;;;;25.88;15.90;;;;;;;;;;2575729;23;20031;-92
2023/05/08 02:33:54;;;;;;;24.10;16.45;;;;;;;;;;2572579;23;20008;-92
2023/05/08 02:35:17;;;;;;;25.00;16.65;;;;;;;;;;2563972;23;20028;-92
2023/05/08 02:36:38;;;;;;;24.80;16.40;;;;;;;;;;2580999;23;20468;-95
2023/05/08 02:38:01;;;;;;;25.42;16.85;;;;;;;;;;2574209;23;20012;-95
2023/05/08 02:44:04;;;;;;;27.05;16.38;;;;;;;;;;2524800;23;20029;-93
2023/05/08 02:48:05;;;;;;;31.40;18.67;;;;;;;;;;2456193;24;20013;-95
2023/05/08 02:50:05;;;;;;;;;;;;;;;;;;;;;
2023/05/08 03:01:25;;;;;;;;;;;;;;;;;;;;;
2023/05/08 03:07:10;;;;;;;32.60;19.42;;;;;;;;;;2430234;24;20024;-94
2023/05/08 03:08:33;;;;;;;31.70;18.50;;;;;;;;;;2388745;24;20442;-94
2023/05/08 03:09:59;;;;;;;30.50;19.05;;;;;;;;;;2398318;24;20015;-94
2023/05/08 03:11:23;;;;;;;36.28;20.73;;;;;;;;;;2433957;24;20014;-94
2023/05/08 03:12:45;;;;;;;34.38;21.35;;;;;;;;;;2484422;23;20057;-95
2023/05/08 03:14:06;;;;;;;;;;;;;;;;;;2553131;23;20083;-95
2023/05/08 03:15:32;;;;;;;40.80;22.52;;;;;;;;;;2565527;23;19904;-95
2023/05/08 03:16:54;;;;;;;34.90;20.20;;;;;;;;;;2560795;23;20016;-94
2023/05/08 03:18:18;;;;;;;33.83;20.80;;;;;;;;;;2557419;23;20029;-95
2023/05/08 03:19:40;;;;;;;33.30;19.98;;;;;;;;;;2557684;23;20013;-95
2023/05/08 03:21:02;;;;;;;37.92;21.15;;;;;;;;;;2556495;23;20017;-95
2023/05/08 03:22:24;;;;;;;31.35;19.67;;;;;;;;;;2570149;23;20019;-95
2023/05/08 03:23:49;;;;;;;31.70;19.90;;;;;;;;;;2565022;23;20354;-93
2023/05/08 03:28:31;;;;;;;47.50;23.58;;;;;;;;;;2500341;23;20015;-93
2023/05/08 03:34:01;;;;;;;34.92;20.13;;;;;;;;;;2463011;23;20024;-95
2023/05/08 03:35:22;;;;;;;29.42;19.17;;;;;;;;;;2465079;24;20013;-94
2023/05/08 03:36:43;;;;;;;33.88;21.52;;;;;;;;;;2461500;24;20024;-95
2023/05/08 03:38:04;;;;;;;32.45;19.33;;;;;;;;;;2503497;23;20016;-94
2023/05/08 03:39:25;;;;;;;37.63;21.80;;;;;;;;;;2549852;23;20020;-93
2023/05/08 03:40:48;;;;;;;35.05;21.13;;;;;;;;;;2572624;23;20008;-94
2023/05/08 03:42:08;;;;;;;;;;;;;;;;;;2569466;23;20023;-94
2023/05/08 03:43:30;;;;;;;31.17;20.80;;;;;;;;;;2582308;23;20312;-94
2023/05/08 03:44:51;;;;;;;36.50;20.52;;;;;;;;;;2572861;23;20004;-95
2023/05/08 03:46:13;;;;;;;36.10;21.45;;;;;;;;;;2574621;22;20004;-95
2023/05/08 03:47:35;;;;;;;37.25;21.85;;;;;;;;;;2571699;23;20005;-94
2023/05/08 03:49:01;;;;;;;39.13;21.27;;;;;;;;;;2570658;23;20005;-95
2023/05/08 03:50:22;;;;;;;34.15;20.65;;;;;;;;;;2572232;23;20009;-94
2023/05/08 03:56:46;;;;;;;64.07;28.00;;;;;;;;;;2491933;23;20022;-94
2023/05/08 03:58:23;;;;;;;32.97;19.95;;;;;;;;;;2508731;23;20038;-95
2023/05/08 03:59:51;;;;;;;36.50;21.80;;;;;;;;;;2550237;23;20013;-95
2023/05/08 04:01:22;;;;;;;34.00;22.27;;;;;;;;;;2582486;23;20030;-92
2023/05/08 04:02:49;;;;;;;33.33;20.50;;;;;;;;;;2574774;23;20500;-93
2023/05/08 04:04:18;;;;;;;34.88;20.85;;;;;;;;;;2575856;23;20009;-95
2023/05/08 04:05:59;;;;;;;33.97;20.80;;;;;;;;;;2569218;23;20012;-95
2023/05/08 04:07:26;;;;;;;39.33;22.60;;;;;;;;;;2574126;23;20084;-92
2023/05/08 04:08:50;;;;;;;37.20;21.08;;;;;;;;;;2583994;22;20322;-95
2023/05/08 04:10:15;;;;;;;37.17;23.45;;;;;;;;;;2575359;23;20012;-95
2023/05/08 04:11:46;;;;;;;35.33;21.45;;;;;;;;;;2574700;23;20008;-93
2023/05/08 04:13:26;;;;;;;39.10;22.17;;;;;;;;;;2569882;23;20008;-95
2023/05/08 04:14:52;;;;;;;39.38;22.30;;;;;;;;;;2588278;23;20034;-95
2023/05/08 04:16:16;;;;;;;48.25;25.92;;;;;;;;;;2572973;23;20016;-95
2023/05/08 04:17:42;;;;;;;36.83;22.23;;;;;;;;;;2574948;23;20008;-95
2023/05/08 04:19:08;;;;;;;37.22;22.83;;;;;;;;;;2568427;23;20019;-94
2023/05/08 04:20:30;;;;;;;36.92;22.33;;;;;;;;;;2582606;23;20019;-95
2023/05/08 04:21:54;;;;;;;43.17;24.45;;;;;;;;;;2578326;22;20074;-95
2023/05/08 04:23:17;;;;;;;39.42;21.85;;;;;;;;;;2572862;23;20019;-94
2023/05/08 04:24:41;;;;;;;40.03;20.75;;;;;;;;;;2568402;23;20076;-94
2023/05/08 04:26:04;;;;;;;67.40;19.08;;;;;;;;;;2582096;23;20433;-95
2023/05/08 04:27:25;;;;;;;107.25;21.30;;;;;;;;;;2577287;23;20017;-95
2023/05/08 04:28:46;;;;;;;28.20;17.13;;;;;;;;;;2572553;23;20020;-95
2023/05/08 04:30:08;;;;;;;35.20;17.43;;;;;;;;;;2569026;23;20008;-95
2023/05/08 04:31:31;;;;;;;34.75;18.98;;;;;;;;;;2579312;23;20020;-96
2023/05/08 04:32:53;;;;;;;40.47;20.77;;;;;;;;;;2577373;23;20013;-95
2023/05/08 04:34:14;;;;;;;68.82;21.88;;;;;;;;;;2572577;23;20012;-94
2023/05/08 04:35:38;;;;;;;42.00;21.30;;;;;;;;;;2567408;23;20072;-94
2023/05/08 04:36:59;;;;;;;67.07;24.70;;;;;;;;;;2579311;23;20019;-93
2023/05/08 04:38:20;;;;;;;39.00;20.52;;;;;;;;;;2580335;22;20023;-95
2023/05/08 04:39:41;;;;;;;38.05;22.17;;;;;;;;;;2572846;23;20015;-95
2023/05/08 04:41:05;;;;;;;40.05;21.73;;;;;;;;;;2567900;23;20004;-95
2023/05/08 04:42:26;;;;;;;40.38;22.42;;;;;;;;;;2582544;23;20015;-94
2023/05/08 04:43:48;;;;;;;38.13;21.50;;;;;;;;;;2574350;23;20001;-95
2023/05/08 04:45:12;;;;;;;38.53;22.35;;;;;;;;;;2574183;23;20389;-95
2023/05/08 04:46:36;;;;;;;42.13;22.83;;;;;;;;;;2565550;23;20092;-95
2023/05/08 04:47:57;;;;;;;39.03;22.15;;;;;;;;;;2582377;23;20103;-95
2023/05/08 04:54:37;;;;;;;;;;;;;;;;;;;;;
2023/05/08 04:58:33;;;;;;;;;;;;;;;;;;;;;
2023/05/08 05:04:34;;;;;;;;;;;;;;;;;;;;;
2023/05/08 05:06:39;;;;;;;50.90;26.60;;;;;;;;;;2419098;24;20034;-94
2023/05/08 05:10:10;;;;;;;47.58;25.63;;;;;;;;;;2418375;24;20029;-94
2023/05/08 05:11:31;;;;;;;47.63;24.20;;;;;;;;;;2432653;24;20461;-94
2023/05/08 05:12:55;;;;;;;51.55;25.95;;;;;;;;;;2458128;23;20013;-94
2023/05/08 05:14:16;;;;;;;45.63;26.52;;;;;;;;;;2504181;23;20011;-92
2023/05/08 05:15:40;;;;;;;52.85;26.60;;;;;;;;;;2494789;23;20044;-91
2023/05/08 05:17:02;;;;;;;38.53;23.17;;;;;;;;;;2558177;23;20020;-90
2023/05/08 05:18:23;;;;;;;42.77;23.67;;;;;;;;;;2549537;23;20109;-92
2023/05/08 05:19:44;;;;;;;47.65;23.40;;;;;;;;;;2549763;23;20516;-95
2023/05/08 05:21:05;;;;;;;40.78;23.55;;;;;;;;;;2547395;23;20013;-94
2023/05/08 05:22:27;;;;;;;44.15;24.40;;;;;;;;;;2551538;23;20020;-94
2023/05/08 05:23:48;;;;;;;44.22;24.95;;;;;;;;;;2544931;23;20005;-93
2023/05/08 05:25:09;;;;;;;46.80;25.30;;;;;;;;;;2548139;23;20021;-93
2023/05/08 05:26:33;;;;;;;45.70;25.42;;;;;;;;;;2544352;23;20065;-93
2023/05/08 05:27:57;;;;;;;49.95;28.48;;;;;;;;;;2545674;23;20014;-95
2023/05/08 05:29:18;;;;;;;50.22;27.10;;;;;;;;;;2544918;23;20010;-96
2023/05/08 05:32:35;;;;;;;61.72;28.70;;;;;;;;;;2562594;23;20028;-94
2023/05/08 05:33:56;;;;;;;54.35;30.92;;;;;;;;;;2560098;23;20027;-95
2023/05/08 05:35:17;;;;;;;65.57;33.88;;;;;;;;;;2542755;23;20026;-95
2023/05/08 05:36:38;;;;;;;65.07;36.10;;;;;;;;;;2541961;23;20474;-95
2023/05/08 05:37:59;;;;;;;64.35;35.85;;;;;;;;;;2546527;23;20013;-94
2023/05/08 05:39:20;;;;;;;66.90;36.38;;;;;;;;;;2546763;23;20021;-91
2023/05/08 05:40:41;;;;;;;66.68;36.60;;;;;;;;;;2558843;23;20610;-95
2023/05/08 05:42:02;;;;;;;65.57;35.97;;;;;;;;;;2547323;23;20013;-91
2023/05/08 05:43:23;;;;;;;64.20;35.17;;;;;;;;;;2550045;23;20073;-93
2023/05/08 05:44:44;;;;;;;68.80;35.67;;;;;;;;;;2547479;23;20010;-93
2023/05/08 05:46:06;;;;;;;60.70;33.40;;;;;;;;;;2545567;23;20009;-95
2023/05/08 05:47:27;;;;;;;64.90;35.25;;;;;;;;;;2531563;23;20065;-95
2023/05/08 05:49:18;;;;;;;62.40;35.25;;;;;;;;;;2548000;23;20016;-95
2023/05/08 05:50:39;;;;;;;59.45;33.40;;;;;;;;;;2560348;23;20005;-95
2023/05/08 05:52:00;;;;;;;59.58;33.22;;;;;;;;;;2549055;23;19997;-94
2023/05/08 05:53:21;;;;;;;55.90;32.58;;;;;;;;;;2550911;23;20502;-94
2023/05/08 05:54:42;;;;;;;60.47;33.17;;;;;;;;;;2548798;23;20014;-95
2023/05/08 05:56:04;;;;;;;60.65;32.72;;;;;;;;;;2545873;23;20025;-95
2023/05/08 05:57:25;;;;;;;64.03;34.35;;;;;;;;;;2546753;23;20090;-94
2023/05/08 05:58:46;;;;;;;64.38;35.33;;;;;;;;;;2548188;23;20009;-94
2023/05/08 06:00:08;;;;;;;58.47;33.28;;;;;;;;;;2557296;23;20008;-94
2023/05/08 06:01:29;;;;;;;56.28;31.30;;;;;;;;;;2554926;23;20094;-93
2023/05/08 06:02:53;;;;;;;55.00;29.73;;;;;;;;;;2547687;23;20362;-94
2023/05/08 06:04:14;;;;;;;56.78;29.98;;;;;;;;;;2547215;23;20058;-95
2023/05/08 06:05:38;;;;;;;51.97;30.67;;;;;;;;;;2556795;23;20058;-94
2023/05/08 06:07:39;;;;;;;;;;;;;;;;;;;;;
2023/05/08 06:09:26;;;;;;;62.72;33.80;;;;;;;;;;2563986;23;20021;-90
2023/05/08 06:10:47;;;;;;;63.40;35.05;;;;;;;;;;2570981;23;20009;-92
2023/05/08 06:12:13;;;;;;;63.20;36.35;;;;;;;;;;2556701;23;20016;-90
2023/05/08 06:13:43;;;;;;;70.45;37.20;;;;;;;;;;2570961;23;20089;-91
2023/05/08 06:15:08;;;;;;;65.45;35.75;;;;;;;;;;2567647;23;20016;-91
2023/05/08 06:16:35;;;;;;;69.72;37.95;;;;;;;;;;2580634;23;20015;-92
2023/05/08 06:18:03;;;;;;;67.68;37.38;;;;;;;;;;2571659;23;20024;-91
2023/05/08 06:25:07;;;;;;;;;;;;;;;;;;;;;
2023/05/08 06:26:31;;;;;;;63.88;36.67;;;;;;;;;;2571572;23;20025;-92
2023/05/08 06:28:11;;;;;;;73.35;39.65;;;;;;;;;;2557645;23;20020;-91
2023/05/08 06:29:38;;;;;;;74.30;38.70;;;;;;;;;;2573180;23;20011;-93
2023/05/08 06:35:26;;;;;;;69.28;38.60;;;;;;;;;;2572873;23;19996;-91
2023/05/08 06:37:16;;;;;;;63.75;36.72;;;;;;;;;;2583768;23;20013;-92
2023/05/08 06:38:37;;;;;;;69.57;38.78;;;;;;;;;;2505123;23;20020;-92
2023/05/08 06:42:06;;;;;;;69.40;38.72;;;;;;;;;;2573427;23;20016;-87
2023/05/08 06:45:34;;;;;;;66.85;35.55;;;;;;;;;;2575497;23;20001;-91
2023/05/08 06:47:03;;;;;;;64.95;34.53;;;;;;;;;;2583245;23;20519;-91
2023/05/08 06:52:48;;;;;;;65.15;33.47;;;;;;;;;;2555383;23;20009;-94
2023/05/08 06:56:02;;;;;;;69.22;35.42;;;;;;;;;;2524377;23;20010;-93
2023/05/08 06:57:29;;;;;;;78.28;40.47;;;;;;;;;;2520623;23;20006;-94
2023/05/08 06:58:52;;;;;;;68.70;36.75;;;;;;;;;;2548503;23;20171;-93
2023/05/08 07:00:16;;;;;;;72.28;38.75;;;;;;;;;;2557078;23;20005;-94
2023/05/08 07:01:37;;;;;;;65.32;34.75;;;;;;;;;;2561308;23;20008;-94
2023/05/08 07:03:03;;;;;;;63.50;36.85;;;;;;;;;;2568813;23;20004;-95
2023/05/08 07:04:38;;;;;;;70.20;38.15;;;;;;;;;;2564150;23;20024;-94
2023/05/08 07:05:59;;;;;;;64.30;36.00;;;;;;;;;;2561634;23;20016;-93
2023/05/08 07:07:21;;;;;;;63.87;36.77;;;;;;;;;;2558457;23;20020;-94
2023/05/08 07:08:42;;;;;;;67.97;36.92;;;;;;;;;;2554892;23;20430;-94
2023/05/08 07:10:03;;;;;;;70.03;37.20;;;;;;;;;;2574117;23;20055;-93
2023/05/08 07:11:29;;;;;;;62.38;36.33;;;;;;;;;;2574035;23;20008;-93
2023/05/08 07:12:59;;;;;;;71.65;40.60;;;;;;;;;;2582109;23;20012;-92
2023/05/08 07:14:32;;;;;;;64.75;36.55;;;;;;;;;;2562107;23;20005;-93
2023/05/08 07:15:54;;;;;;;64.13;36.80;;;;;;;;;;2568850;23;20016;-94
2023/05/08 07:17:18;;;;;;;70.90;39.20;;;;;;;;;;2568678;23;20012;-93
2023/05/08 07:19:05;;;;;;;65.35;37.45;;;;;;;;;;2532174;23;20017;-94
2023/05/08 07:20:29;;;;;;;66.35;37.47;;;;;;;;;;2525505;23;20121;-91
2023/05/08 07:21:52;;;;;;;68.05;36.88;;;;;;;;;;2536319;23;20006;-94
2023/05/08 07:23:13;;;;;;;73.13;38.03;;;;;;;;;;2549831;23;20009;-96
2023/05/08 07:24:34;;;;;;;63.03;35.90;;;;;;;;;;2546104;23;20221;-91
2023/05/08 07:25:56;;;;;;;63.72;36.50;;;;;;;;;;2555204;23;20009;-91
2023/05/08 07:27:18;;;;;;;64.32;35.53;;;;;;;;;;2573111;23;20016;-92
2023/05/08 07:29:20;;;;;;;74.05;38.20;;;;;;;;;;2558589;23;20017;-92
2023/05/08 07:30:45;;;;;;;;;;;;;;;;;;2559124;23;20060;-93
2023/05/08 07:32:07;;;;;;;63.78;36.28;;;;;;;;;;2549808;23;19901;-92
2023/05/08 07:33:28;;;;;;;68.28;36.88;;;;;;;;;;2555412;23;20020;-91
2023/05/08 07:34:49;;;;;;;62.72;33.97;;;;;;;;;;2573122;23;20009;-94
2023/05/08 07:36:10;;;;;;;61.40;34.85;;;;;;;;;;2563444;23;20062;-94
2023/05/08 07:37:47;;;;;;;69.20;35.17;;;;;;;;;;2575522;23;20012;-95
2023/05/08 07:39:29;;;;;;;60.53;34.72;;;;;;;;;;2532652;23;20408;-96
2023/05/08 07:41:05;;;;;;;;;;;;;;;;;;;;;
2023/05/08 07:43:43;;;;;;;60.30;33.13;;;;;;;;;;2569480;22;20024;-78
2023/05/08 07:45:24;;;;;;;;;;;;;;;;;;;;;
2023/05/08 07:46:58;;;;;;;64.90;33.50;;;;;;;;;;2582391;23;20016;-77
2023/05/08 07:48:19;;;;;;;82.65;38.80;;;;;;;;;;2566656;23;20134;-76
2023/05/08 07:49:40;;;;;;;63.03;33.47;;;;;;;;;;2565095;23;20013;-76
2023/05/08 07:57:49;;;;;;;65.22;34.50;;;;;;;;;;2556802;23;20064;-76
2023/05/08 08:09:04;;;;;;;58.13;31.08;;;;;;;;;;2531945;23;20328;-76
2023/05/08 08:10:28;;;;;;;57.70;31.83;;;;;;;;;;2532003;23;20017;-74
2023/05/08 08:13:55;;;;;;;63.95;33.08;;;;;;;;;;2534501;23;20005;-75
2023/05/08 08:15:18;;;;;;;60.22;33.63;;;;;;;;;;2532371;23;20010;-77
2023/05/08 08:32:50;;;;;;;62.75;31.58;;;;;;;;;;2471949;24;20019;-78
2023/05/08 08:52:53;;;;;;;;;;;;;;;;;;;;;
2023/05/08 08:56:51;;;;;;;60.28;29.48;;;;;;;;;;2504336;23;20015;-78
2023/05/08 08:58:58;;;;;;;52.70;29.58;;;;;;;;;;2496845;23;20015;-78
2023/05/08 09:00:27;;;;;;;61.50;31.35;;;;;;;;;;2419915;23;20025;-80
2023/05/08 15:21:54;;;;;;;30.17;16.35;;;;;;;;;;2556056;23;20342;-80
2023/05/08 15:23:19;;;;;;;31.23;17.00;;;;;;;;;;2578251;23;20016;-78
2023/05/08 15:24:40;;;;;;;36.90;19.02;;;;;;;;;;2571393;23;20084;-78
2023/05/08 15:26:01;;;;;;;29.13;16.73;;;;;;;;;;2566497;23;20509;-78
2023/05/08 15:29:20;;;;;;;70.22;24.85;;;;;;;;;;2564068;23;20054;-79
2023/05/08 15:30:43;;;;;;;33.63;17.15;;;;;;;;;;2566359;23;20009;-81
2023/05/08 15:32:05;;;;;;;33.92;19.02;;;;;;;;;;2567981;23;20048;-81
2023/05/08 15:33:26;;;;;;;37.40;19.65;;;;;;;;;;2568713;23;20446;-83
2023/05/08 15:37:10;;;;;;;40.20;20.48;;;;;;;;;;2569455;23;20004;-80
2023/05/08 15:38:31;;;;;;;38.70;20.77;;;;;;;;;;2566944;23;20019;-80
2023/05/08 15:39:55;;;;;;;38.90;20.42;;;;;;;;;;2563961;23;20020;-80
2023/05/08 15:41:16;;;;;;;43.22;21.98;;;;;;;;;;2568862;23;20012;-80
2023/05/08 15:42:37;;;;;;;50.20;24.83;;;;;;;;;;2578056;23;20012;-80
2023/05/08 15:43:58;;;;;;;51.33;23.30;;;;;;;;;;2571415;23;20008;-80
2023/05/08 15:45:19;;;;;;;49.55;23.85;;;;;;;;;;2565356;23;20008;-80
2023/05/08 15:46:46;;;;;;;49.70;23.13;;;;;;;;;;2567799;23;20023;-80
2023/05/08 15:48:17;;;;;;;44.88;21.95;;;;;;;;;;2567100;23;20008;-80
2023/05/08 15:49:40;;;;;;;44.33;23.30;;;;;;;;;;2579614;23;20008;-80
2023/05/08 15:51:01;;;;;;;50.10;24.33;;;;;;;;;;2572019;23;20074;-80
2023/05/08 15:52:22;;;;;;;72.53;29.52;;;;;;;;;;2553130;23;20020;-79
2023/05/08 15:53:46;;;;;;;53.30;24.55;;;;;;;;;;2564517;23;20005;-80
2023/05/08 15:55:08;;;;;;;44.42;21.83;;;;;;;;;;2567775;22;20027;-80
2023/05/08 15:56:29;;;;;;;56.47;25.40;;;;;;;;;;2580377;22;20103;-80
2023/05/08 15:57:50;;;;;;;56.75;24.83;;;;;;;;;;2568447;23;20012;-80
2023/05/08 15:59:11;;;;;;;51.67;24.40;;;;;;;;;;2564071;23;20012;-79
2023/05/08 16:00:32;;;;;;;46.92;21.13;;;;;;;;;;2568170;23;20017;-80
2023/05/08 16:01:56;;;;;;;49.42;21.95;;;;;;;;;;2576590;23;20016;-80
2023/05/08 16:03:23;;;;;;;41.28;21.17;;;;;;;;;;2566576;23;20568;-80
2023/05/08 16:04:50;;;;;;;52.47;23.60;;;;;;;;;;2578752;23;20008;-82
2023/05/08 16:06:15;;;;;;;47.58;22.45;;;;;;;;;;2571734;23;20012;-80
2023/05/08 16:07:39;;;;;;;41.53;21.73;;;;;;;;;;2566254;23;20020;-81
2023/05/08 16:10:45;;;;;;;45.47;22.63;;;;;;;;;;2568562;23;20016;-82
2023/05/08 16:12:28;;;;;;;47.25;23.30;;;;;;;;;;2582497;23;20004;-82
2023/05/08 16:13:54;;;;;;;51.03;24.20;;;;;;;;;;2567705;23;20009;-81
2023/05/08 16:15:49;;;;;;;;;;;;;;;;;;;;;
2023/05/08 16:17:23;;;;;;;50.13;21.88;;;;;;;;;;2568629;23;20008;-82
2023/05/08 16:18:50;;;;;;;58.35;24.23;;;;;;;;;;2564533;23;20012;-82
2023/05/08 16:20:24;;;;;;;50.70;23.52;;;;;;;;;;2557493;23;20075;-82
2023/05/08 16:21:58;;;;;;;49.55;22.48;;;;;;;;;;2564495;23;20552;-82
2023/05/08 16:23:22;;;;;;;47.25;22.05;;;;;;;;;;2564966;23;20460;-82
2023/05/08 16:24:59;;;;;;;42.88;21.38;;;;;;;;;;2563656;23;20085;-82
2023/05/08 16:26:35;;;;;;;47.35;22.65;;;;;;;;;;2568964;23;20521;-82
2023/05/08 16:28:05;;;;;;;47.78;22.60;;;;;;;;;;2567498;23;20374;-82
2023/05/08 16:29:40;;;;;;;52.88;24.00;;;;;;;;;;2566034;23;20015;-81
2023/05/08 16:31:27;;;;;;;48.80;22.42;;;;;;;;;;2566082;23;20421;-82
2023/05/08 16:33:42;;;;;;;108.53;35.83;;;;;;;;;;2544819;23;20337;-82
2023/05/08 16:39:47;;;;;;;52.72;22.75;;;;;;;;;;2568764;23;20005;-82
2023/05/08 16:41:12;;;;;;;44.90;20.58;;;;;;;;;;2581267;23;20468;-82
2023/05/08 16:55:11;;;;;;;47.33;22.08;;;;;;;;;;2552750;23;20024;-82
2023/05/08 16:59:00;;;;;;;52.38;23.25;;;;;;;;;;2557140;23;20013;-83
2023/05/08 17:05:06;;;;;;;46.47;21.13;;;;;;;;;;2534773;23;20010;-82
2023/05/08 17:13:37;;;;;;;56.55;23.08;;;;;;;;;;2518425;23;20499;-82
2023/05/08 17:30:15;;;;;;;;;;;;;;;;;;;;;
2023/05/08 17:34:25;;;;;;;;;;;;;;;;;;;;;
2023/05/08 17:51:41;;;;;;;;;;;;;;;;;;;;;
2023/05/08 17:58:00;;;;;;;;;;;;;;;;;;;;;
2023/05/08 18:19:27;;;;;;;64.00;26.73;;;;;;;;;;2391697;24;20105;-80
2023/05/08 18:22:43;;;;;;;57.92;25.20;;;;;;;;;;2392349;24;20019;-84
2023/05/08 18:30:52;;;;;;;;;;;;;;;;;;;;;
2023/05/08 18:34:23;;;;;;;43.33;22.35;;;;;;;;;;2471387;24;20020;-82
2023/05/08 18:36:10;;;;;;;62.50;26.40;;;;;;;;;;2500153;23;20384;-81
2023/05/08 18:46:19;;;;;;;53.92;24.23;;;;;;;;;;2501574;23;20022;-82
2023/05/08 18:47:52;;;;;;;51.50;24.23;;;;;;;;;;2518960;23;20014;-81
2023/05/08 18:49:42;;;;;;;61.08;26.40;;;;;;;;;;2505708;23;20400;-82
2023/05/08 18:51:41;;;;;;;60.95;25.85;;;;;;;;;;2503502;23;20024;-82
2023/05/08 19:02:13;;;;;;;;;;;;;;;;;;;;;
2023/05/08 19:14:35;;;;;;;;;;;;;;;;;;;;;
2023/05/08 19:28:34;;;;;;;56.22;23.92;;;;;;;;;;2425482;24;20072;-82
2023/05/08 19:30:01;;;;;;;61.67;26.67;;;;;;;;;;2423496;24;20017;-83
2023/05/08 19:33:38;;;;;;;57.50;25.90;;;;;;;;;;2458777;24;20016;-82
2023/05/08 19:35:18;;;;;;;48.53;26.20;;;;;;;;;;2490572;23;20011;-81
2023/05/08 19:37:28;;;;;;;58.53;25.15;;;;;;;;;;2510564;23;20525;-83
2023/05/08 19:38:51;;;;;;;56.28;23.58;;;;;;;;;;2564211;23;20016;-83
2023/05/08 19:42:29;;;;;;;53.72;24.80;;;;;;;;;;2555641;23;20013;-80
2023/05/08 19:45:50;;;;;;;68.68;26.80;;;;;;;;;;2511129;23;20070;-81
2023/05/08 19:47:23;;;;;;;57.08;25.45;;;;;;;;;;2516339;23;20018;-81
2023/05/08 19:49:12;;;;;;;59.33;25.50;;;;;;;;;;2555447;23;20009;-81
2023/05/08 19:52:59;;;;;;;48.00;23.60;;;;;;;;;;2557328;23;20466;-81
2023/05/08 19:54:45;;;;;;;52.38;24.50;;;;;;;;;;2535667;23;20006;-81
2023/05/08 19:56:23;;;;;;;79.50;30.02;;;;;;;;;;2544304;23;20020;-81
2023/05/08 20:00:36;;;;;;;;;;;;;;;;;;;;;
2023/05/08 20:02:25;;;;;;;66.88;26.60;;;;;;;;;;2531453;23;20569;-75
2023/05/08 20:03:55;;;;;;;56.85;26.00;;;;;;;;;;2528593;23;20021;-75
2023/05/08 20:08:00;;;;;;;53.28;25.90;;;;;;;;;;2529366;23;20072;-75
2023/05/08 20:09:46;;;;;;;53.58;24.98;;;;;;;;;;2533522;23;20368;-75
2023/05/08 20:11:29;;;;;;;60.47;26.75;;;;;;;;;;2520950;23;20017;-75
2023/05/08 20:13:13;;;;;;;56.08;27.25;;;;;;;;;;2518090;23;20397;-75
2023/05/08 20:18:52;;;;;;;65.68;26.00;;;;;;;;;;2508301;23;20011;-75
2023/05/08 20:20:35;;;;;;;62.65;26.65;;;;;;;;;;2506701;23;20330;-75
2023/05/08 20:24:17;;;;;;;66.95;27.20;;;;;;;;;;2479449;23;20013;-75
2023/05/08 20:32:13;;;;;;;;;;;;;;;;;;;;;
2023/05/08 20:36:14;;;;;;;52.75;24.88;;;;;;;;;;2519105;23;20011;-75